createdAt,value
2022-07-30T00:03:42.715Z,5.27
2022-07-30T00:07:44.546Z,6.03
2022-07-30T00:11:46.375Z,5.23
2022-07-30T00:15:48.252Z,5.70
2022-07-30T00:19:50.098Z,5.70
2022-07-30T00:24:01.779Z,5.40
2022-07-30T00:28:04.183Z,5.60
2022-07-30T00:32:06.378Z,6.00
2022-07-30T00:36:08.257Z,5.60
2022-07-30T00:40:10.426Z,6.20
2022-07-30T00:44:12.207Z,6.03
2022-07-30T00:48:14.699Z,5.90
2022-07-30T00:52:16.690Z,5.83
2022-07-30T00:56:18.521Z,5.90
2022-07-30T01:00:21.937Z,6.00
2022-07-30T01:04:23.822Z,6.13
2022-07-30T01:08:25.998Z,6.53
2022-07-30T01:12:29.150Z,6.27
2022-07-30T01:16:30.976Z,6.47
2022-07-30T01:21:00.952Z,6.13
2022-07-30T01:25:32.399Z,6.27
2022-07-30T01:29:34.420Z,6.60
2022-07-30T01:33:39.295Z,6.47
2022-07-30T01:37:41.339Z,6.60
2022-07-30T01:41:43.399Z,6.73
2022-07-30T01:45:45.320Z,6.50
2022-07-30T01:49:47.376Z,6.13
2022-07-30T01:53:49.691Z,6.43
2022-07-30T01:57:51.487Z,6.63
2022-07-30T02:01:53.354Z,6.90
2022-07-30T02:06:01.294Z,6.50
2022-07-30T02:10:12.119Z,6.47
2022-07-30T02:14:49.323Z,7.37
2022-07-30T02:19:04.418Z,7.37
2022-07-30T02:23:11.122Z,7.20
2022-07-30T02:27:18.311Z,7.53
2022-07-30T02:31:23.680Z,7.13
2022-07-30T02:35:25.537Z,7.60
2022-07-30T02:39:27.447Z,7.73
2022-07-30T02:43:30.082Z,7.17
2022-07-30T02:47:38.457Z,7.07
2022-07-30T02:51:40.257Z,7.80
2022-07-30T02:55:42.644Z,7.60
2022-07-30T02:59:44.425Z,7.20
2022-07-30T03:03:46.297Z,7.87
2022-07-30T03:07:54.283Z,7.30
2022-07-30T03:12:02.270Z,7.57
2022-07-30T03:16:07.044Z,8.17
2022-07-30T03:20:18.401Z,7.40
2022-07-30T03:24:20.327Z,7.90
2022-07-30T03:28:25.812Z,7.17
2022-07-30T03:32:27.580Z,7.73
2022-07-30T03:36:30.633Z,7.03
2022-07-30T03:40:32.550Z,6.77
2022-07-30T03:44:34.695Z,7.47
2022-07-30T03:48:36.616Z,8.10
2022-07-30T03:52:43.153Z,7.53
2022-07-30T03:56:44.948Z,8.10
2022-07-30T04:00:50.526Z,8.27
2022-07-30T04:04:52.454Z,7.47
2022-07-30T04:08:54.219Z,7.13
2022-07-30T04:12:56.706Z,7.57
2022-07-30T04:17:04.257Z,7.77
2022-07-30T04:21:07.666Z,8.00
2022-07-30T04:25:20.490Z,8.03
2022-07-30T04:29:26.286Z,8.13
2022-07-30T04:33:28.313Z,7.83
2022-07-30T04:37:30.210Z,6.90
2022-07-30T04:41:37.159Z,7.00
2022-07-30T04:45:51.011Z,7.13
2022-07-30T04:49:53.234Z,7.07
2022-07-30T04:53:56.084Z,7.93
2022-07-30T04:57:57.907Z,7.33
2022-07-30T05:02:00.037Z,7.90
2022-07-30T05:06:01.875Z,7.40
2022-07-30T05:10:04.137Z,7.17
2022-07-30T05:14:06.665Z,7.60
2022-07-30T05:18:08.876Z,7.37
2022-07-30T05:22:11.019Z,7.93
2022-07-30T05:26:12.874Z,7.23
2022-07-30T05:30:14.791Z,7.93
2022-07-30T05:34:16.902Z,7.43
2022-07-30T05:38:18.866Z,8.03
2022-07-30T05:42:26.405Z,7.90
2022-07-30T05:46:28.489Z,7.27
2022-07-30T05:50:30.283Z,7.07
2022-07-30T05:54:32.084Z,6.90
2022-07-30T05:58:36.123Z,7.00
2022-07-30T06:02:39.598Z,6.77
2022-07-30T06:06:41.370Z,6.83
2022-07-30T06:10:43.269Z,6.83
2022-07-30T06:14:45.681Z,7.23
2022-07-30T06:18:47.639Z,6.97
2022-07-30T06:22:49.803Z,6.83
2022-07-30T06:26:52.056Z,6.97
2022-07-30T06:30:54.121Z,7.43
2022-07-30T06:35:03.938Z,7.57
2022-07-30T06:39:05.876Z,7.37
2022-07-30T06:43:07.861Z,7.40
2022-07-30T06:47:09.949Z,7.67
2022-07-30T06:51:12.339Z,8.17
2022-07-30T06:55:14.101Z,7.97
2022-07-30T06:59:16.095Z,7.83
2022-07-30T07:03:20.156Z,7.50
2022-07-30T07:07:40.810Z,8.40
2022-07-30T07:11:43.964Z,8.10
2022-07-30T07:15:45.689Z,7.40
2022-07-30T07:19:59.648Z,8.40
2022-07-30T07:24:04.422Z,8.27
2022-07-30T07:28:12.743Z,8.40
2022-07-30T07:32:15.113Z,8.30
2022-07-30T07:36:17.946Z,8.60
2022-07-30T07:40:19.752Z,7.97
2022-07-30T07:44:21.782Z,8.33
2022-07-30T07:48:23.576Z,8.17
2022-07-30T07:52:25.377Z,8.10
2022-07-30T07:56:27.249Z,7.83
2022-07-30T08:00:29.704Z,8.60
2022-07-30T08:04:31.476Z,8.40
2022-07-30T08:08:33.338Z,8.30
2022-07-30T08:12:35.386Z,7.83
2022-07-30T08:16:37.264Z,8.10
2022-07-30T08:20:39.714Z,8.07
2022-07-30T08:24:41.790Z,8.30
2022-07-30T08:28:43.556Z,7.90
2022-07-30T08:32:45.320Z,7.90
2022-07-30T08:36:47.112Z,8.90
2022-07-30T08:40:48.887Z,8.47
2022-07-30T08:44:52.567Z,8.40
2022-07-30T08:48:54.329Z,8.53
2022-07-30T08:52:56.353Z,9.40
2022-07-30T08:56:58.656Z,9.57
2022-07-30T09:01:00.439Z,9.60
2022-07-30T09:05:02.399Z,8.03
2022-07-30T09:09:04.225Z,7.67
2022-07-30T09:13:06.109Z,7.90
2022-07-30T09:17:07.903Z,7.80
2022-07-30T09:21:20.841Z,7.60
2022-07-30T09:25:42.503Z,7.00
2022-07-30T09:29:44.379Z,7.20
2022-07-30T09:33:47.433Z,7.10
2022-07-30T09:38:06.481Z,7.50
2022-07-30T09:42:26.057Z,8.23
2022-07-30T09:46:47.873Z,8.17
2022-07-30T09:50:51.178Z,8.30
2022-07-30T09:54:53.220Z,8.50
2022-07-30T09:58:55.713Z,8.50
2022-07-30T10:03:00.485Z,8.20
2022-07-30T10:07:25.167Z,8.37
2022-07-30T10:11:31.327Z,7.93
2022-07-30T10:15:34.949Z,8.43
2022-07-30T10:19:39.877Z,8.13
2022-07-30T10:23:45.061Z,7.60
2022-07-30T10:27:48.339Z,8.10
2022-07-30T10:31:54.511Z,7.67
2022-07-30T10:35:56.839Z,7.67
2022-07-30T10:40:25.978Z,7.77
2022-07-30T10:45:17.533Z,8.00
2022-07-30T10:49:19.679Z,7.80
2022-07-30T10:53:41.000Z,7.90
2022-07-30T10:58:14.468Z,8.53
2022-07-30T11:02:21.986Z,8.20
2022-07-30T11:06:25.505Z,8.00
2022-07-30T11:10:39.462Z,8.30
2022-07-30T11:14:47.539Z,7.80
2022-07-30T11:19:53.251Z,8.17
2022-07-30T11:23:39.466Z,8.40
2022-07-30T11:27:50.357Z,8.03
2022-07-30T11:32:07.519Z,7.40
2022-07-30T11:36:11.948Z,7.30
2022-07-30T11:40:13.984Z,7.63
2022-07-30T11:44:29.130Z,8.40
2022-07-30T11:48:31.201Z,7.87
2022-07-30T11:52:33.200Z,7.00
2022-07-30T11:56:35.065Z,7.18
2022-07-30T12:00:42.249Z,6.97
2022-07-30T12:04:44.440Z,6.78
2022-07-30T12:08:48.458Z,6.20
2022-07-30T12:12:50.284Z,6.10
2022-07-30T12:16:53.562Z,5.32
2022-07-30T12:21:00.660Z,6.63
2022-07-30T12:25:08.720Z,5.97
2022-07-30T12:29:13.145Z,6.38
2022-07-30T12:33:14.879Z,7.00
2022-07-30T12:37:16.689Z,6.72
2022-07-30T12:41:18.528Z,6.88
2022-07-30T12:45:51.729Z,6.70
2022-07-30T12:49:55.103Z,6.30
2022-07-30T12:53:57.089Z,6.80
2022-07-30T12:58:08.008Z,7.13
2022-07-30T13:02:10.779Z,7.10
2022-07-30T13:06:25.553Z,6.70
2022-07-30T13:10:31.149Z,6.57
2022-07-30T13:14:33.572Z,6.50
2022-07-30T13:18:36.537Z,6.00
2022-07-30T13:22:38.388Z,6.20
2022-07-30T13:26:40.334Z,7.18
2022-07-30T13:30:42.271Z,6.75
2022-07-30T13:34:44.112Z,6.85
2022-07-30T13:38:46.359Z,7.35
2022-07-30T13:42:54.002Z,6.88
2022-07-30T13:46:58.782Z,6.85
2022-07-30T13:51:04.226Z,7.47
2022-07-30T13:55:06.414Z,7.57
2022-07-30T13:59:08.800Z,7.23
2022-07-30T14:03:12.057Z,7.17
2022-07-30T14:07:13.831Z,7.83
2022-07-30T14:11:16.333Z,7.13
2022-07-30T14:15:19.284Z,7.93
2022-07-30T14:19:24.619Z,7.73
2022-07-30T14:23:27.390Z,7.40
2022-07-30T14:27:29.286Z,6.57
2022-07-30T14:31:31.125Z,6.60
2022-07-30T14:35:32.979Z,6.45
2022-07-30T14:39:35.032Z,6.85
2022-07-30T14:43:36.810Z,6.20
2022-07-30T14:47:39.553Z,6.60
2022-07-30T14:51:42.763Z,5.60
2022-07-30T14:55:45.637Z,6.00
2022-07-30T14:59:47.414Z,6.30
2022-07-30T15:03:49.318Z,5.55
2022-07-30T15:07:51.104Z,5.93
2022-07-30T15:12:09.861Z,6.18
2022-07-30T15:16:11.991Z,6.13
2022-07-30T15:20:14.404Z,4.87
2022-07-30T15:24:16.228Z,4.45
2022-07-30T15:28:17.968Z,4.80
2022-07-30T15:32:19.755Z,4.93
2022-07-30T15:36:22.101Z,5.37
2022-07-30T15:40:24.459Z,5.40
2022-07-30T15:44:26.362Z,2.70
2022-07-30T15:48:28.380Z,2.37
2022-07-30T15:52:30.218Z,2.70
2022-07-30T15:56:33.536Z,2.57
2022-07-30T16:00:36.444Z,2.70
2022-07-30T16:04:39.007Z,2.37
2022-07-30T16:08:47.461Z,2.13
2022-07-30T16:12:49.493Z,2.20
2022-07-30T16:16:53.061Z,2.20
2022-07-30T16:20:58.539Z,2.33
2022-07-30T16:25:00.424Z,2.40
2022-07-30T16:29:02.322Z,2.33
2022-07-30T16:33:04.151Z,2.43
2022-07-30T16:37:06.003Z,2.80
2022-07-30T16:41:13.575Z,2.60
2022-07-30T16:45:15.673Z,2.70
2022-07-30T16:49:17.836Z,2.90
2022-07-30T16:53:19.721Z,2.60
2022-07-30T16:57:21.581Z,3.17
2022-07-30T17:01:23.631Z,2.70
2022-07-30T17:05:25.576Z,2.60
2022-07-30T17:09:27.344Z,2.50
2022-07-30T17:13:40.428Z,3.73
2022-07-30T17:17:42.370Z,2.90
2022-07-30T17:21:44.189Z,3.60
2022-07-30T17:25:46.012Z,2.73
2022-07-30T17:29:49.737Z,2.50
2022-07-30T17:33:52.537Z,3.20
2022-07-30T17:37:54.684Z,3.07
2022-07-30T17:42:01.808Z,6.90
2022-07-30T17:46:05.334Z,7.07
2022-07-30T17:50:08.372Z,7.90
2022-07-30T17:54:10.336Z,8.10
2022-07-30T17:58:12.480Z,7.50
2022-07-30T18:02:16.723Z,7.73
2022-07-30T18:06:28.353Z,8.27
2022-07-30T18:10:30.206Z,8.43
2022-07-30T18:14:31.995Z,8.23
2022-07-30T18:18:34.765Z,8.40
2022-07-30T18:22:36.620Z,8.10
2022-07-30T18:26:41.163Z,8.97
2022-07-30T18:30:43.253Z,8.57
2022-07-30T18:34:45.113Z,8.47
2022-07-30T18:38:49.808Z,8.43
2022-07-30T18:42:53.464Z,8.60
2022-07-30T18:46:57.447Z,9.10
2022-07-30T18:50:59.196Z,8.17
2022-07-30T18:55:02.077Z,8.97
2022-07-30T18:59:03.954Z,9.00
2022-07-30T19:03:06.119Z,9.03
2022-07-30T19:07:07.977Z,8.30
2022-07-30T19:11:09.805Z,8.23
2022-07-30T19:15:14.182Z,9.17
2022-07-30T19:19:16.675Z,9.03
2022-07-30T19:23:18.786Z,9.67
2022-07-30T19:27:20.624Z,9.57
2022-07-30T19:31:22.424Z,9.33
2022-07-30T19:35:24.396Z,8.03
2022-07-30T19:39:26.764Z,9.40
2022-07-30T19:43:29.066Z,9.53
2022-07-30T19:47:39.220Z,8.83
2022-07-30T19:52:02.255Z,9.00
2022-07-30T19:56:08.272Z,10.30
2022-07-30T20:00:13.062Z,9.43
2022-07-30T20:04:14.906Z,9.57
2022-07-30T20:08:18.378Z,9.90
2022-07-30T20:12:26.910Z,9.77
2022-07-30T20:16:28.925Z,9.70
2022-07-30T20:20:30.828Z,9.33
2022-07-30T20:24:33.459Z,9.67
2022-07-30T20:28:35.835Z,9.40
2022-07-30T20:32:46.392Z,9.97
2022-07-30T20:36:48.759Z,10.00
2022-07-30T20:40:54.163Z,9.93
2022-07-30T20:44:57.126Z,9.03
2022-07-30T20:48:59.105Z,8.93
2022-07-30T20:53:01.135Z,9.23
2022-07-30T20:57:04.511Z,8.43
2022-07-30T21:01:08.422Z,8.77
2022-07-30T21:05:20.019Z,8.27
2022-07-30T21:09:22.086Z,8.33
2022-07-30T21:13:26.039Z,8.70
2022-07-30T21:17:28.298Z,8.70
2022-07-30T21:21:38.593Z,8.53
2022-07-30T21:30:16.009Z,9.83
2022-07-30T21:34:17.774Z,9.87
2022-07-30T21:38:19.994Z,9.20
2022-07-30T21:42:25.907Z,8.70
2022-07-30T21:46:32.278Z,8.47
2022-07-30T21:50:34.262Z,10.17
2022-07-30T21:54:47.988Z,9.00
2022-07-30T21:58:50.387Z,8.63
2022-07-30T22:02:53.935Z,9.43
2022-07-30T22:06:55.995Z,8.47
2022-07-30T22:11:03.186Z,8.23
2022-07-30T22:15:10.732Z,8.80
2022-07-30T22:19:17.311Z,8.87
2022-07-30T22:23:20.413Z,10.17
2022-07-30T22:27:22.185Z,9.47
2022-07-30T22:31:23.913Z,8.67
2022-07-30T22:35:34.258Z,9.97
2022-07-30T22:39:51.035Z,9.97
2022-07-30T22:43:54.250Z,9.30
2022-07-30T22:47:56.290Z,10.57
2022-07-30T22:52:03.118Z,12.13
2022-07-30T22:56:15.529Z,10.90
2022-07-30T23:00:27.648Z,10.10
2022-07-30T23:04:30.313Z,9.53
2022-07-30T23:08:34.695Z,9.43
2022-07-30T23:12:32.859Z,9.03
2022-07-30T23:12:37.736Z,9.47
2022-07-30T23:16:39.835Z,10.10
2022-07-30T23:20:41.669Z,8.60
2022-07-30T23:24:43.434Z,10.00
2022-07-30T23:28:45.223Z,10.27
2022-07-30T23:32:47.071Z,9.00
2022-07-30T23:36:49.438Z,9.13
2022-07-30T23:40:51.200Z,9.17
2022-07-30T23:44:52.945Z,8.93
2022-07-30T23:48:54.743Z,9.10
2022-07-30T23:52:56.627Z,9.23
2022-07-30T23:56:58.350Z,8.90
